Latest Weather Observations for Dartmoor

IDV60801

Issued at 3:35 pm EDT Wednesday 22 October 2014 (issued every 30 minutes, with the page automatically refreshed every 10 minutes)

About weather observations | Map of weather stations | Latest weather observations for VIC | Other Formats
Station Details ID: 090194 Name: DARTMOOR Lat: -37.92 Lon: 141.26 Height: 51.0 m
Data from the previous 72 hours. | See also: Recent months at Dartmoor
Date/Time
EDT
Temp
°C
App
Temp
°C
Dew
Point
Rel
Hum
%
Delta-T
°C
Wind Press
QNH
hPa
Press
MSL
hPa
Rain
since 9 am
mm
Dir
 
Spd
km/h
Gust
km/h
Spd
kts
Gust
kts
22/03:30pm 21.5 18.4 14.4 64 4.2 SSW 24 32 13 17 1017.2 1017.2 0.0
22/03:00pm 23.2 20.3 13.9 56 5.4 SW 22 32 12 17 1017.1 1017.1 0.0
22/02:30pm 23.1 20.4 14.7 59 5.0 SSW 22 32 12 17 1017.1 1017.1 0.0
22/02:00pm 25.0 21.5 13.5 48 6.7 SSW 24 32 13 17 1016.9 1016.9 0.0
22/01:30pm 27.1 24.1 13.8 44 7.9 SSW 22 28 12 15 1016.7 1016.7 0.0
22/01:00pm 27.7 25.2 14.0 43 8.2 SSW 20 26 11 14 1016.5 1016.5 0.0
22/12:30pm 28.0 26.4 11.5 35 9.5 WNW 11 20 6 11 1016.6 1016.6 0.0
22/12:00pm 27.1 26.2 12.7 41 8.4 N 9 15 5 8 1016.9 1016.9 0.0
22/11:30am 25.2 24.2 12.4 45 7.4 NNW 9 15 5 8 1017.3 1017.3 0.0
22/11:00am 25.4 23.5 11.9 43 7.7 NW 13 19 7 10 1017.3 1017.3 0.0
22/10:30am 24.0 23.5 12.6 49 6.6 NNW 7 11 4 6 1017.2 1017.2 0.0
22/10:00am 23.6 22.6 12.3 49 6.4 NW 9 13 5 7 1017.1 1017.1 0.0
22/09:30am 21.6 22.8 13.8 61 4.5 CALM 0 0 0 0 1017.1 1017.1 0.0
22/09:00am 19.9 21.3 14.3 70 3.2 CALM 0 0 0 0 1017.0 1017.0 0.0
22/08:30am 19.4 20.6 13.8 70 3.2 CALM 0 0 0 0 1016.9 1016.9 0.0
22/08:00am 16.2 17.2 13.1 82 1.7 CALM 0 0 0 0 1016.9 1016.9 0.0
22/07:30am 13.9 14.3 11.4 85 1.3 CALM 0 0 0 0 1017.0 1017.0 0.0
22/07:00am 13.7 13.8 10.1 79 1.9 CALM 0 0 0 0 1016.6 1016.6 0.0
22/06:30am 14.1 14.1 9.7 75 2.3 CALM 0 0 0 0 1016.9 1016.9 0.0
22/06:00am 15.5 14.6 10.5 72 2.6 WNW 6 7 3 4 1017.0 1017.0 0.0
22/05:30am 15.5 15.4 9.6 68 3.1 CALM 0 0 0 0 1016.7 1016.7 0.0
22/05:00am 16.3 15.9 9.7 65 3.4 N 2 6 1 3 1016.8 1016.8 0.0
22/04:30am 18.6 17.3 9.9 57 4.6 NNE 7 11 4 6 1016.6 1016.6 0.0
22/04:00am 17.5 17.4 9.4 59 4.2 CALM 0 0 0 0 1016.8 1016.8 0.0
22/03:30am 18.6 17.7 9.1 54 5.0 NNE 4 6 2 3 1016.8 1016.8 0.0
22/03:00am 20.1 18.7 8.8 48 5.9 N 6 13 3 7 1017.0 1017.0 0.0
22/02:30am 17.2 15.8 10.8 66 3.4 ENE 9 15 5 8 1016.6 1016.6 0.0
22/02:00am 17.6 17.3 11.4 67 3.4 NNE 4 7 2 4 1017.5 1017.5 0.0
22/01:30am 17.1 17.9 12.4 74 2.6 CALM 0 0 0 0 1017.7 1017.7 0.0
22/01:00am 18.6 18.1 12.8 69 3.3 NE 7 9 4 5 1018.0 1018.0 0.0
22/12:30am 17.0 17.0 14.3 84 1.5 ENE 7 9 4 5 1018.3 1018.3 0.0
22/12:00am 16.8 17.2 15.2 90 0.9 E 7 9 4 5 1018.7 1018.7 0.0
 
Date/Time
EDT
Temp
°C
App
Temp
°C
Dew
Point
Rel
Hum
%
Delta-T
°C
Wind Press
QNH
hPa
Press
MSL
hPa
Rain
since 9 am
mm
Dir
 
Spd
km/h
Gust
km/h
Spd
kts
Gust
kts
21/11:30pm 17.2 17.2 15.2 88 1.2 E 9 11 5 6 1019.1 1019.1 0.0
21/11:00pm 17.2 17.9 15.5 90 1.0 ENE 6 9 3 5 1019.4 1019.4 0.0
21/10:30pm 17.5 17.4 16.0 91 0.9 E 11 13 6 7 1019.4 1019.4 0.0
21/10:00pm 17.6 17.7 15.6 88 1.2 E 9 11 5 6 1019.9 1019.9 0.0
21/09:30pm 17.4 17.8 15.2 87 1.3 E 7 9 4 5 1019.9 1019.9 0.0
21/09:00pm 18.1 17.9 14.8 81 1.9 E 9 13 5 7 1019.8 1019.8 0.0
21/08:30pm 18.8 18.2 14.5 76 2.5 ESE 11 15 6 8 1019.7 1019.7 0.0
21/08:00pm 20.9 21.0 15.4 71 3.3 ESE 9 13 5 7 1019.7 1019.7 0.0
21/07:30pm 24.0 23.5 16.0 61 4.9 ESE 13 17 7 9 1019.5 1019.5 0.0
21/07:00pm 27.0 26.3 14.4 46 7.5 E 11 17 6 9 1019.4 1019.4 0.0
21/06:30pm 28.2 26.1 9.9 32 10.3 ENE 11 17 6 9 1019.6 1019.6 0.0
21/06:00pm 29.0 26.9 9.7 30 10.8 ENE 11 17 6 9 1019.7 1019.7 0.0
21/05:30pm 29.4 27.5 9.0 28 11.3 E 9 15 5 8 1019.8 1019.8 0.0
21/05:00pm 29.7 28.4 9.3 28 11.4 ENE 6 13 3 7 1020.0 1020.0 0.0
21/04:30pm 29.7 28.2 9.3 28 11.4 E 7 15 4 8 1020.3 1020.3 0.0
21/04:00pm 29.6 28.2 9.7 29 11.2 ENE 7 22 4 12 1020.6 1020.6 0.0
21/03:30pm 28.3 26.8 9.1 30 10.6 ENE 7 15 4 8 1021.1 1021.1 0.0
21/03:00pm 28.2 26.9 9.9 32 10.2 NE 7 15 4 8 1021.6 1021.6 0.0
21/02:30pm 27.8 27.0 10.9 35 9.6 NE 6 17 3 9 1022.1 1022.1 0.0
21/02:00pm 27.1 25.5 10.3 35 9.4 NE 9 15 5 8 1022.5 1022.5 0.0
21/01:30pm 26.2 25.0 11.5 40 8.4 NE 9 15 5 8 1022.8 1022.8 0.0
21/01:00pm 25.3 23.8 10.4 39 8.3 NNE 9 15 5 8 1023.1 1023.1 0.0
21/12:30pm 24.6 22.9 9.7 39 8.2 NNE 9 19 5 10 1023.6 1023.7 0.0
21/12:00pm 23.1 21.4 9.8 43 7.2 N 9 13 5 7 1023.9 1024.0 0.0
21/11:30am 22.0 20.3 9.9 46 6.6 NE 9 15 5 8 1024.0 1024.1 0.0
21/11:00am 20.0 19.9 12.0 60 4.4 ENE 4 9 2 5 1024.3 1024.4 0.0
21/10:30am 17.6 17.0 11.6 68 3.3 E 6 9 3 5 1024.4 1024.5 0.0
21/10:00am 15.3 14.1 10.3 72 2.6 ENE 7 9 4 5 1024.5 1024.6 0.0
21/09:30am 13.9 12.4 10.5 80 1.8 E 9 15 5 8 1024.4 1024.5 0.0
21/09:00am 12.1 10.1 10.3 89 0.9 E 11 15 6 8 1024.7 1024.8 0.0
21/08:30am 10.6 8.3 10.4 99 0.1 E 13 22 7 12 1024.9 1025.0 0.0
21/08:00am 9.5 7.7 9.5 100 0.0 E 9 17 5 9 1024.3 1024.4 0.0
21/07:30am 8.4 6.3 8.4 100 0.0 E 9 13 5 7 1024.1 1024.2 0.0
21/07:00am 7.3 5.3 7.3 100 0.0 E 7 11 4 6 1024.0 1024.1 0.0
21/06:30am 7.6 5.7 7.6 100 0.0 E 7 9 4 5 1023.8 1023.9 0.0
21/06:00am 7.9 5.7 7.9 100 0.0 E 9 17 5 9 1023.5 1023.6 0.0
21/05:30am 8.1 5.6 8.1 100 0.0 E 11 15 6 8 1023.6 1023.7 0.0
21/05:00am 8.7 5.9 8.7 100 0.0 E 13 19 7 10 1023.7 1023.8 0.0
21/04:30am 9.1 6.4 9.1 100 0.0 E 13 20 7 11 1024.1 1024.2 0.0
21/04:00am 9.3 5.9 9.3 100 0.0 E 17 26 9 14 1024.1 1024.2 0.0
21/03:30am 9.5 6.2 9.5 100 0.0 E 17 26 9 14 1024.3 1024.4 0.0
21/03:00am 9.7 6.4 9.7 100 0.0 E 17 26 9 14 1024.7 1024.8 0.0
21/02:30am 9.9 6.3 9.9 100 0.0 E 19 28 10 15 1025.0 1025.1 0.0
21/02:00am 10.0 7.2 10.0 100 0.0 E 15 20 8 11 1025.3 1025.4 0.0
21/01:30am 9.9 7.8 9.8 99 0.1 E 11 17 6 9 1025.8 1025.9 0.0
21/01:00am 10.3 7.9 10.0 98 0.2 E 13 20 7 11 1026.2 1026.3 0.0
21/12:30am 10.7 7.2 10.1 96 0.3 E 19 30 10 16 1026.3 1026.4 0.0
21/12:00am 10.6 7.7 9.5 93 0.5 E 15 24 8 13 1026.5 1026.6 0.0
 
Date/Time
EDT
Temp
°C
App
Temp
°C
Dew
Point
Rel
Hum
%
Delta-T
°C
Wind Press
QNH
hPa
Press
MSL
hPa
Rain
since 9 am
mm
Dir
 
Spd
km/h
Gust
km/h
Spd
kts
Gust
kts
20/11:30pm 11.1 7.8 9.5 90 0.8 E 17 26 9 14 1026.7 1026.8 0.0
20/11:00pm 11.1 7.8 9.5 90 0.8 E 17 28 9 15 1027.0 1027.1 0.0
20/10:30pm 10.0 8.1 9.2 95 0.4 E 9 13 5 7 1027.1 1027.2 0.0
20/10:00pm 10.1 7.9 9.3 95 0.4 ESE 11 15 6 8 1027.1 1027.2 0.0
20/09:30pm 10.4 7.8 9.2 92 0.6 SE 13 17 7 9 1027.0 1027.1 0.0
20/09:00pm 11.1 8.4 8.8 86 1.1 ESE 13 19 7 10 1026.7 1026.8 0.0
20/08:30pm 11.5 8.7 8.4 81 1.5 ESE 13 17 7 9 1026.4 1026.5 0.0
20/08:00pm 12.4 9.1 8.1 75 2.1 ESE 15 20 8 11 1026.2 1026.3 0.0
20/07:30pm 13.2 8.9 7.9 70 2.6 ESE 20 28 11 15 1026.1 1026.2 0.0
20/07:00pm 14.3 9.3 8.0 66 3.1 ESE 24 35 13 19 1026.1 1026.2 0.0
20/06:30pm 15.6 10.2 8.1 61 3.8 ESE 26 39 14 21 1026.3 1026.4 0.0
20/06:00pm 16.5 11.2 8.5 59 4.1 ESE 26 37 14 20 1026.5 1026.6 0.0
20/05:30pm 17.0 11.3 8.4 57 4.4 ESE 28 37 15 20 1026.7 1026.8 0.0
20/05:00pm 17.2 12.4 8.9 58 4.3 SE 24 32 13 17 1026.8 1026.9 0.0
20/04:30pm 18.6 13.9 9.1 54 5.0 SE 24 33 13 18 1026.9 1027.0 0.0
20/04:00pm 18.8 14.0 8.7 52 5.2 SE 24 33 13 18 1026.9 1027.0 0.0
20/03:30pm 20.0 15.9 7.7 45 6.3 ESE 19 30 10 16 1027.2 1027.3 0.0
20/03:00pm 19.5 15.4 7.9 47 5.9 E 19 33 10 18 1027.5 1027.6 0.0
20/02:30pm 19.5 14.7 7.3 45 6.2 E 22 30 12 16 1027.9 1028.0 0.0
20/02:00pm 18.3 13.8 6.8 47 5.7 E 20 30 11 16 1028.1 1028.2 0.0
20/01:30pm 18.2 13.8 7.3 49 5.5 E 20 32 11 17 1028.4 1028.4 0.0
20/01:00pm 17.5 13.1 6.7 49 5.3 E 19 30 10 16 1028.8 1028.8 0.0
20/12:30pm 17.0 11.9 5.9 48 5.4 ESE 22 35 12 19 1029.3 1029.3 0.0
20/12:00pm 16.1 9.4 5.7 50 5.0 ESE 30 37 16 20 1029.7 1029.7 0.0
20/11:30am 15.5 9.2 5.7 52 4.7 E 28 39 15 21 1030.2 1030.2 0.0
20/11:00am 14.8 9.2 5.6 54 4.3 E 24 35 13 19 1030.3 1030.3 0.0
20/10:30am 14.2 7.1 5.3 55 4.2 ESE 32 43 17 23 1030.3 1030.3 0.0
20/10:02am 13.7 7.5 6.1 60 3.6 E 28 48 15 26 1030.4 1030.4 0.0
20/10:00am 13.4 6.7 5.8 60 3.6 E 30 48 16 26 1030.4 1030.4 0.0
20/09:30am 12.9 6.0 6.3 64 3.1 ESE 32 48 17 26 1030.3 1030.3 0.0
20/09:05am 12.0 5.7 5.6 65 3.0 ESE 28 48 15 26 1030.2 1030.2 0.0
20/09:00am 12.2 6.0 6.0 66 2.9 ESE 28 43 15 23 1030.2 1030.2 0.0
20/08:30am 11.2 4.9 5.9 70 2.5 ESE 28 44 15 24 1030.0 1030.0 0.0
20/08:00am 10.5 6.0 5.9 73 2.1 E 19 28 10 15 1029.8 1029.8 0.0
20/07:30am 9.1 5.4 6.5 84 1.2 ESE 15 22 8 12 1029.3 1029.3 0.0
20/07:00am 8.2 4.1 6.0 86 1.0 ESE 17 26 9 14 1028.9 1028.9 0.0
20/06:30am 8.1 4.0 6.2 88 0.9 ESE 17 26 9 14 1028.5 1028.5 0.0
20/06:00am 8.0 4.2 6.0 87 0.9 ESE 15 20 8 11 1028.6 1028.6 0.0
20/05:30am 8.2 4.2 6.7 90 0.7 SE 17 24 9 13 1028.5 1028.5 0.0
20/05:00am 8.0 4.9 7.2 95 0.4 SE 13 17 7 9 1028.1 1028.2 0.0
20/04:30am 8.3 5.2 7.4 94 0.4 ESE 13 19 7 10 1027.9 1028.0 0.0
20/04:00am 8.2 5.6 7.8 97 0.2 SE 11 17 6 9 1028.1 1028.2 0.0
20/03:30am 8.8 5.6 8.4 97 0.2 SE 15 20 8 11 1028.0 1028.1 0.0
20/03:00am 9.2 5.8 9.1 99 0.0 SE 17 24 9 13 1027.9 1028.0 0.0
20/02:30am 8.8 5.7 8.7 99 0.0 SE 15 20 8 11 1028.0 1028.1 0.0
20/02:00am 9.4 6.4 9.3 99 0.0 SSE 15 20 8 11 1028.7 1028.7 0.0
20/01:30am 9.3 6.7 9.2 99 0.0 SSE 13 17 7 9 1028.9 1028.9 0.0
20/01:00am 10.3 7.6 10.3 100 0.0 SSE 15 22 8 12 1028.8 1028.8 0.0
20/12:30am 10.9 8.7 10.9 100 0.0 SSE 13 20 7 11 1029.2 1029.2 0.0
20/12:00am 10.9 8.4 10.9 100 0.0 SE 15 24 8 13 1028.9 1028.9 0.0
 
Date/Time
EDT
Temp
°C
App
Temp
°C
Dew
Point
Rel
Hum
%
Delta-T
°C
Wind Press
QNH
hPa
Press
MSL
hPa
Rain
since 9 am
mm
Dir
 
Spd
km/h
Gust
km/h
Spd
kts
Gust
kts
19/11:30pm 10.9 7.4 10.9 100 0.0 ESE 20 30 11 16 1028.9 1028.9 0.0
19/11:00pm 11.1 8.2 11.1 100 0.0 SE 17 26 9 14 1028.8 1028.8 0.0
19/10:30pm 11.6 9.4 10.7 94 0.5 SE 13 19 7 10 1028.7 1028.7 0.0
19/10:00pm 11.7 8.3 10.4 92 0.7 SE 19 24 10 13 1028.6 1028.6 0.0
19/09:30pm 11.8 8.3 10.9 94 0.5 SSE 20 28 11 15 1028.3 1028.3 0.0
19/09:00pm 12.0 7.8 11.2 95 0.4 SSE 24 37 13 20 1027.7 1027.8 0.0
19/08:30pm 12.3 9.5 11.4 94 0.5 SSE 17 22 9 12 1027.0 1027.1 0.0
19/08:00pm 12.6 10.2 11.5 93 0.6 SE 15 24 8 13 1026.6 1026.7 0.0
19/07:30pm 13.1 9.9 12.0 93 0.6 S 20 32 11 17 1026.3 1026.4 0.0
19/07:00pm 13.8 9.5 12.2 90 0.9 S 26 39 14 21 1026.0 1026.1 0.0
19/06:30pm 14.9 12.0 12.4 85 1.4 S 19 30 10 16 1025.8 1025.9 0.0
19/06:00pm 15.2 13.0 12.2 82 1.6 SSE 15 22 8 12 1024.3 1024.4 0.0
19/05:30pm 15.2 13.3 12.9 86 1.3 S 15 22 8 12 1024.0 1024.1 0.0
19/05:00pm 15.4 12.7 12.9 85 1.4 S 19 24 10 13 1023.7 1023.8 0.0
19/04:30pm 15.2 12.4 13.1 87 1.2 S 20 30 11 16 1024.3 1024.4 0.0
19/04:00pm 15.3 12.1 13.2 87 1.2 S 22 30 12 16 1023.8 1023.9 0.0

Other Formats:

Comma delimited format used in spreadsheet applications
http://www.bom.gov.au/fwo/IDV60801/IDV60801.95822.axf

JavaScript Object Notation format (JSON) in row-major order
http://www.bom.gov.au/fwo/IDV60801/IDV60801.95822.json